createdAt,value
2019-04-28T00:02:04.307Z,11.00
2019-04-28T00:07:09.144Z,10.90
2019-04-28T00:12:14.052Z,10.90
2019-04-28T00:17:18.880Z,10.90
2019-04-28T00:22:25.280Z,10.80
2019-04-28T00:27:31.580Z,10.80
2019-04-28T00:32:36.403Z,10.70
2019-04-28T00:37:41.779Z,10.60
2019-04-28T00:42:47.094Z,10.60
2019-04-28T00:47:52.005Z,10.60
2019-04-28T00:52:56.837Z,10.60
2019-04-28T00:58:01.678Z,10.60
2019-04-28T01:03:06.593Z,10.60
2019-04-28T01:08:11.440Z,10.70
2019-04-28T01:13:16.587Z,10.70
2019-04-28T01:18:42.359Z,10.60
2019-04-28T01:23:47.288Z,10.60
2019-04-28T01:28:52.667Z,10.60
2019-04-28T01:34:15.460Z,10.60
2019-04-28T01:39:20.389Z,10.70
2019-04-28T01:44:25.547Z,10.70
2019-04-28T01:49:30.390Z,10.70
2019-04-28T01:54:35.233Z,10.70
2019-04-28T01:59:40.467Z,10.70
2019-04-28T02:04:45.504Z,10.70
2019-04-28T02:09:50.340Z,10.70
2019-04-28T02:14:55.181Z,10.70
2019-04-28T02:20:00.802Z,10.70
2019-04-28T02:25:07.498Z,10.80
2019-04-28T02:30:12.327Z,10.70
2019-04-28T02:35:17.178Z,10.70
2019-04-28T02:40:22.021Z,10.70
2019-04-28T02:45:26.937Z,10.70
2019-04-28T02:50:33.405Z,10.70
2019-04-28T02:55:40.903Z,10.70
2019-04-28T03:01:01.154Z,10.70
2019-04-28T03:05:51.422Z,10.70
2019-04-28T03:10:56.390Z,10.70
2019-04-28T03:16:01.847Z,10.70
2019-04-28T03:21:07.072Z,10.70
2019-04-28T03:26:13.545Z,10.70
2019-04-28T03:31:49.053Z,10.70
2019-04-28T03:36:26.442Z,10.70
2019-04-28T03:41:31.268Z,10.80
2019-04-28T03:46:41.185Z,10.80
2019-04-28T03:51:44.749Z,10.80
2019-04-28T03:56:50.150Z,10.80
2019-04-28T04:02:02.326Z,10.80
2019-04-28T04:07:03.563Z,10.90
2019-04-28T04:12:15.536Z,10.90
2019-04-28T04:17:33.849Z,10.90
2019-04-28T04:22:41.046Z,11.00
2019-04-28T04:27:44.867Z,11.00
2019-04-28T04:32:50.686Z,11.10
2019-04-28T04:37:55.651Z,11.10
2019-04-28T04:43:01.585Z,11.20
2019-04-28T04:48:07.040Z,11.40
2019-04-28T04:53:11.791Z,11.40
2019-04-28T04:58:16.612Z,11.40
2019-04-28T05:03:29.501Z,11.40
2019-04-28T05:08:47.293Z,11.40
2019-04-28T05:13:52.124Z,11.50
2019-04-28T05:18:56.895Z,11.50
2019-04-28T05:24:15.816Z,11.60
2019-04-28T05:29:19.987Z,11.60
2019-04-28T05:34:24.949Z,11.70
2019-04-28T05:39:30.062Z,11.80
2019-04-28T05:44:37.472Z,12.00
2019-04-28T05:49:55.058Z,12.10
2019-04-28T05:55:07.309Z,12.20
2019-04-28T06:00:19.829Z,12.30
2019-04-28T06:05:24.775Z,12.40
2019-04-28T06:10:29.945Z,12.50
2019-04-28T06:15:35.458Z,12.60
2019-04-28T06:20:40.654Z,12.60
2019-04-28T06:25:45.775Z,12.70
2019-04-28T06:30:50.529Z,12.80
2019-04-28T06:35:55.362Z,12.90
2019-04-28T06:41:00.203Z,13.00
2019-04-28T06:46:05.137Z,13.00
2019-04-28T06:51:10.069Z,13.10
2019-04-28T06:56:14.817Z,13.20
2019-04-28T07:01:19.732Z,13.20
2019-04-28T07:06:24.560Z,13.20
2019-04-28T07:11:29.380Z,13.20
2019-04-28T07:16:34.277Z,13.30
2019-04-28T07:21:43.566Z,13.40
2019-04-28T07:26:48.412Z,13.50
2019-04-28T07:31:53.309Z,13.60
2019-04-28T07:36:58.157Z,13.70
2019-04-28T07:42:02.999Z,13.70
2019-04-28T07:47:07.825Z,13.60
2019-04-28T07:52:17.220Z,13.60
2019-04-28T07:57:24.056Z,13.60
2019-04-28T08:02:30.045Z,13.60
2019-04-28T08:07:34.896Z,13.70
2019-04-28T08:12:39.735Z,13.70
2019-04-28T08:17:44.580Z,13.70
2019-04-28T08:22:49.344Z,13.80
2019-04-28T08:27:54.186Z,13.80
2019-04-28T08:33:00.509Z,13.80
2019-04-28T08:38:05.341Z,13.80
2019-04-28T08:43:10.231Z,13.80
2019-04-28T08:48:15.007Z,13.90
2019-04-28T08:53:19.919Z,14.00
2019-04-28T08:58:24.823Z,14.00
2019-04-28T09:03:29.663Z,14.10
2019-04-28T09:08:34.504Z,14.20
2019-04-28T09:13:39.338Z,14.30
2019-04-28T09:18:44.183Z,14.30
2019-04-28T09:23:49.019Z,14.30
2019-04-28T09:28:53.718Z,14.50
2019-04-28T09:33:58.548Z,14.40
2019-04-28T09:39:05.429Z,14.50
2019-04-28T09:44:11.910Z,14.60
2019-04-28T09:49:16.755Z,14.90
2019-04-28T09:54:21.590Z,15.00
2019-04-28T09:59:26.602Z,14.90
2019-04-28T10:04:40.964Z,14.90
2019-04-28T10:09:38.594Z,14.90
2019-04-28T10:14:43.444Z,15.00
2019-04-28T10:19:48.294Z,14.90
2019-04-28T10:24:53.143Z,14.90
2019-04-28T10:29:57.991Z,14.90
2019-04-28T10:35:02.892Z,15.00
2019-04-28T10:40:13.509Z,14.90
2019-04-28T10:45:19.998Z,14.80
2019-04-28T10:50:24.842Z,14.90
2019-04-28T10:55:29.673Z,14.80
2019-04-28T11:00:36.166Z,14.50
2019-04-28T11:05:42.709Z,14.50
2019-04-28T11:10:47.723Z,14.40
2019-04-28T11:15:52.641Z,14.30
2019-04-28T11:20:57.875Z,14.20
2019-04-28T11:26:02.985Z,14.20
2019-04-28T11:31:07.895Z,14.10
2019-04-28T11:36:13.917Z,14.10
2019-04-28T11:41:18.744Z,14.00
2019-04-28T11:46:23.644Z,14.00
2019-04-28T11:51:28.491Z,13.90
2019-04-28T11:56:41.170Z,13.90
2019-04-28T12:01:39.768Z,13.80
2019-04-28T12:06:44.669Z,13.90
2019-04-28T12:11:53.969Z,13.80
2019-04-28T12:17:03.316Z,13.80
2019-04-28T12:22:08.229Z,13.80
2019-04-28T12:27:13.061Z,13.80
2019-04-28T12:32:17.993Z,13.90
2019-04-28T12:37:22.840Z,13.90
2019-04-28T12:42:27.688Z,13.80
2019-04-28T12:47:32.575Z,13.70
2019-04-28T12:52:37.519Z,13.80
2019-04-28T12:57:42.427Z,13.80
2019-04-28T13:03:06.955Z,13.90
2019-04-28T13:08:11.813Z,13.90
2019-04-28T13:13:16.751Z,13.90
2019-04-28T13:18:21.597Z,14.10
2019-04-28T13:23:26.504Z,14.10
2019-04-28T13:28:31.303Z,14.20
2019-04-28T13:33:36.258Z,14.20
2019-04-28T13:38:41.109Z,14.20
2019-04-28T13:43:45.925Z,14.20
2019-04-28T13:48:50.807Z,14.10
2019-04-28T13:53:55.672Z,14.00
2019-04-28T13:59:02.124Z,14.00
2019-04-28T14:04:11.870Z,14.10
2019-04-28T14:09:17.210Z,14.10
2019-04-28T14:14:22.072Z,14.10
2019-04-28T14:19:26.963Z,14.20
2019-04-28T14:24:31.862Z,14.20
2019-04-28T14:29:36.697Z,14.20
2019-04-28T14:34:41.711Z,14.10
2019-04-28T14:39:46.436Z,14.10
2019-04-28T14:44:51.346Z,14.10
2019-04-28T14:49:56.079Z,14.10
2019-04-28T14:55:00.937Z,14.00
2019-04-28T15:00:11.207Z,13.90
2019-04-28T15:05:30.277Z,14.00
2019-04-28T15:10:39.724Z,13.90
2019-04-28T15:15:44.835Z,13.90
2019-04-28T15:20:49.780Z,13.80
2019-04-28T15:25:54.665Z,13.80
2019-04-28T15:30:59.547Z,13.70
2019-04-28T15:36:04.912Z,13.80
2019-04-28T15:41:20.937Z,13.80
2019-04-28T15:46:16.278Z,13.80
2019-04-28T15:51:21.206Z,13.80
2019-04-28T15:56:36.564Z,13.80
2019-04-28T16:03:09.429Z,13.80
2019-04-28T16:08:14.264Z,13.70
2019-04-28T16:13:19.125Z,13.60
2019-04-28T16:18:23.977Z,13.50
2019-04-28T16:23:28.793Z,13.50
2019-04-28T16:28:33.643Z,13.30
2019-04-28T16:33:38.481Z,13.20
2019-04-28T16:38:43.575Z,13.10
2019-04-28T16:43:49.042Z,12.90
2019-04-28T16:48:53.887Z,12.80
2019-04-28T16:53:58.652Z,12.70
2019-04-28T16:59:17.612Z,12.60
2019-04-28T17:04:22.622Z,12.60
2019-04-28T17:09:27.456Z,12.60
2019-04-28T17:14:32.375Z,12.50
2019-04-28T17:19:37.290Z,12.50
2019-04-28T17:24:42.136Z,12.50
2019-04-28T17:29:47.745Z,12.50
2019-04-28T17:34:53.455Z,12.50
2019-04-28T17:39:58.649Z,12.50
2019-04-28T17:45:04.485Z,12.40
2019-04-28T17:50:11.064Z,12.40
2019-04-28T17:55:15.985Z,12.30
2019-04-28T18:00:38.923Z,12.30
2019-04-28T18:05:45.439Z,12.30
2019-04-28T18:10:50.273Z,12.20
2019-04-28T18:15:59.455Z,12.10
2019-04-28T18:21:04.471Z,12.10
2019-04-28T18:26:09.316Z,12.10
2019-04-28T18:31:15.803Z,12.10
2019-04-28T18:36:24.980Z,12.00
2019-04-28T18:41:40.414Z,12.00
2019-04-28T18:46:45.452Z,11.90
2019-04-28T18:51:50.328Z,12.00
2019-04-28T18:56:55.199Z,12.00
2019-04-28T19:02:01.718Z,12.00
2019-04-28T19:07:08.236Z,11.90
2019-04-28T19:12:17.678Z,11.90
2019-04-28T19:17:36.080Z,11.90
2019-04-28T19:22:44.552Z,11.90
2019-04-28T19:27:49.424Z,11.90
2019-04-28T19:32:54.287Z,11.70
2019-04-28T19:37:59.175Z,11.60
2019-04-28T19:43:04.127Z,11.60
2019-04-28T19:48:08.980Z,11.50
2019-04-28T19:53:13.847Z,11.50
2019-04-28T19:58:20.585Z,11.40
2019-04-28T20:03:25.500Z,11.40
2019-04-28T20:08:30.344Z,11.40
2019-04-28T20:13:35.147Z,11.40
2019-04-28T20:18:40.019Z,11.40
2019-04-28T20:23:44.864Z,11.40
2019-04-28T20:28:49.718Z,11.40
2019-04-28T20:33:54.610Z,11.50
2019-04-28T20:39:01.157Z,11.40
2019-04-28T20:44:06.112Z,11.40
2019-04-28T20:49:11.048Z,11.40
2019-04-28T20:54:15.922Z,11.40
2019-04-28T20:59:21.190Z,11.40
2019-04-28T21:04:25.983Z,11.40
2019-04-28T21:09:30.826Z,11.40
2019-04-28T21:14:35.672Z,11.50
2019-04-28T21:19:40.496Z,11.40
2019-04-28T21:24:45.336Z,11.40
2019-04-28T21:29:50.253Z,11.40
2019-04-28T21:34:55.098Z,11.40
2019-04-28T21:39:59.937Z,11.40
2019-04-28T21:45:07.926Z,11.40
2019-04-28T21:50:12.774Z,11.40
2019-04-28T21:55:17.542Z,11.30
2019-04-28T22:00:26.446Z,11.30
2019-04-28T22:05:31.268Z,11.30
2019-04-28T22:10:36.107Z,11.30
2019-04-28T22:15:40.939Z,11.30
2019-04-28T22:20:45.790Z,11.30
2019-04-28T22:25:50.636Z,11.40
2019-04-28T22:30:55.544Z,11.40
2019-04-28T22:36:00.382Z,11.40
2019-04-28T22:41:05.224Z,11.40
2019-04-28T22:46:10.068Z,11.40
2019-04-28T22:51:14.977Z,11.50
2019-04-28T22:56:24.179Z,11.50
2019-04-28T23:01:32.232Z,11.50
2019-04-28T23:06:37.087Z,11.40
2019-04-28T23:11:42.084Z,11.40
2019-04-28T23:16:47.006Z,11.50
2019-04-28T23:21:53.502Z,11.50
2019-04-28T23:26:58.345Z,11.50
2019-04-28T23:32:03.354Z,11.50
2019-04-28T23:37:08.201Z,11.50
2019-04-28T23:42:14.684Z,11.60
2019-04-28T23:47:19.535Z,11.60
2019-04-28T23:52:28.755Z,11.60
2019-04-28T23:57:33.528Z,11.60
